createdAt,value
2018-07-28T00:00:41.207Z,9.97
2018-07-28T00:03:10.549Z,10.13
2018-07-28T00:05:39.771Z,9.80
2018-07-28T00:08:08.977Z,11.93
2018-07-28T00:10:38.356Z,10.80
2018-07-28T00:13:07.741Z,10.87
2018-07-28T00:15:36.984Z,11.07
2018-07-28T00:18:06.182Z,10.37
2018-07-28T00:20:35.483Z,10.43
2018-07-28T00:23:04.713Z,10.73
2018-07-28T00:25:37.964Z,10.37
2018-07-28T00:28:08.266Z,10.03
2018-07-28T00:30:37.532Z,10.70
2018-07-28T00:33:06.726Z,11.53
2018-07-28T00:35:35.948Z,10.57
2018-07-28T00:38:05.172Z,10.70
2018-07-28T00:40:34.427Z,10.83
2018-07-28T00:43:04.032Z,10.60
2018-07-28T00:45:33.401Z,10.60
2018-07-28T00:48:02.669Z,10.17
2018-07-28T00:50:31.932Z,10.57
2018-07-28T00:53:01.137Z,10.57
2018-07-28T00:55:30.459Z,11.27
2018-07-28T00:57:59.664Z,10.53
2018-07-28T01:00:28.986Z,10.20
2018-07-28T01:02:58.177Z,11.67
2018-07-28T01:05:27.380Z,13.20
2018-07-28T01:07:56.625Z,10.73
2018-07-28T01:10:25.923Z,10.87
2018-07-28T01:12:55.148Z,11.07
2018-07-28T01:15:24.732Z,11.70
2018-07-28T01:17:54.030Z,11.30
2018-07-28T01:20:23.388Z,11.30
2018-07-28T01:22:52.588Z,11.97
2018-07-28T01:25:21.796Z,11.13
2018-07-28T01:27:51.056Z,10.97
2018-07-28T01:30:24.693Z,11.00
2018-07-28T01:32:53.928Z,11.30
2018-07-28T01:35:23.153Z,12.03
2018-07-28T01:37:52.389Z,11.97
2018-07-28T01:40:21.740Z,11.00
2018-07-28T01:42:50.960Z,13.80
2018-07-28T01:45:20.255Z,11.27
2018-07-28T01:47:49.816Z,11.17
2018-07-28T01:50:19.192Z,11.63
2018-07-28T01:52:48.457Z,11.60
2018-07-28T01:55:17.692Z,11.43
2018-07-28T01:57:46.958Z,11.17
2018-07-28T02:00:17.287Z,11.30
2018-07-28T02:02:46.503Z,11.53
2018-07-28T02:05:15.720Z,12.77
2018-07-28T02:07:44.957Z,11.50
2018-07-28T02:10:14.265Z,11.87
2018-07-28T02:12:43.482Z,11.87
2018-07-28T02:15:12.714Z,12.17
2018-07-28T02:17:41.956Z,12.47
2018-07-28T02:20:11.283Z,12.37
2018-07-28T02:22:40.556Z,12.33
2018-07-28T02:25:10.900Z,11.53
2018-07-28T02:27:40.132Z,13.13
2018-07-28T02:30:09.381Z,12.77
2018-07-28T02:32:38.607Z,11.87
2018-07-28T02:35:08.416Z,14.17
2018-07-28T02:37:37.688Z,12.80
2018-07-28T02:40:07.523Z,12.23
2018-07-28T02:42:36.735Z,12.43
2018-07-28T02:45:06.916Z,12.70
2018-07-28T02:47:36.148Z,12.50
2018-07-28T02:50:06.692Z,12.97
2018-07-28T02:52:36.201Z,11.97
2018-07-28T02:55:06.600Z,13.63
2018-07-28T02:57:35.977Z,15.57
2018-07-28T03:00:06.141Z,16.50
2018-07-28T03:02:35.434Z,16.53
2018-07-28T03:05:05.236Z,17.93
2018-07-28T03:07:34.440Z,17.37
2018-07-28T03:10:03.718Z,17.50
2018-07-28T03:12:32.940Z,18.27
2018-07-28T03:15:03.872Z,18.17
2018-07-28T03:17:33.099Z,18.77
2018-07-28T03:20:02.318Z,18.00
2018-07-28T03:22:31.507Z,16.93
2018-07-28T03:25:00.765Z,18.43
2018-07-28T03:27:30.045Z,17.83
2018-07-28T03:29:59.400Z,18.73
2018-07-28T03:32:28.591Z,16.03
2018-07-28T03:34:57.800Z,16.63
2018-07-28T03:37:27.058Z,16.73
2018-07-28T03:39:56.299Z,17.27
2018-07-28T03:42:25.513Z,16.33
2018-07-28T03:44:54.700Z,16.33
2018-07-28T03:47:23.915Z,17.07
2018-07-28T03:49:53.204Z,16.67
2018-07-28T03:52:22.401Z,16.33
2018-07-28T03:54:51.653Z,16.33
2018-07-28T03:57:20.852Z,15.93
2018-07-28T03:59:50.097Z,14.63
2018-07-28T04:02:19.836Z,14.90
2018-07-28T04:04:49.065Z,15.53
2018-07-28T04:07:18.257Z,15.60
2018-07-28T04:09:47.528Z,14.77
2018-07-28T04:12:16.761Z,13.97
2018-07-28T04:14:45.962Z,13.03
2018-07-28T04:17:15.190Z,13.83
2018-07-28T04:19:44.428Z,13.27
2018-07-28T04:22:13.789Z,13.87
2018-07-28T04:24:42.479Z,12.80
2018-07-28T04:27:11.688Z,14.17
2018-07-28T04:29:42.142Z,13.83
2018-07-28T04:32:11.360Z,13.73
2018-07-28T04:34:40.607Z,13.93
2018-07-28T04:37:09.868Z,14.50
2018-07-28T04:39:39.144Z,12.70
2018-07-28T04:42:08.396Z,14.37
2018-07-28T04:44:37.584Z,13.20
2018-07-28T04:47:06.894Z,12.97
2018-07-28T04:49:36.165Z,13.90
2018-07-28T04:52:05.398Z,12.77
2018-07-28T04:54:34.597Z,12.90
2018-07-28T04:57:03.829Z,14.07
2018-07-28T04:59:33.165Z,14.00
2018-07-28T05:02:03.386Z,12.63
2018-07-28T05:04:32.619Z,12.53
2018-07-28T05:07:01.884Z,13.60
2018-07-28T05:09:31.148Z,13.17
2018-07-28T05:12:00.375Z,13.10
2018-07-28T05:14:29.572Z,12.43
2018-07-28T05:16:58.805Z,13.43
2018-07-28T05:19:28.067Z,13.57
2018-07-28T05:21:57.271Z,12.87
2018-07-28T05:24:26.500Z,15.50
2018-07-28T05:26:55.749Z,11.97
2018-07-28T05:29:25.073Z,13.23
2018-07-28T05:31:54.909Z,13.67
2018-07-28T05:34:24.891Z,16.43
2018-07-28T05:36:54.113Z,14.10
2018-07-28T05:39:23.368Z,13.83
2018-07-28T05:41:52.674Z,14.90
2018-07-28T05:44:21.960Z,14.37
2018-07-28T05:46:51.356Z,30.63
2018-07-28T05:49:20.801Z,20.23
2018-07-28T05:51:50.205Z,17.03
2018-07-28T05:54:19.538Z,16.90
2018-07-28T05:56:48.868Z,16.27
2018-07-28T05:59:17.812Z,14.47
2018-07-28T06:01:47.167Z,13.57
2018-07-28T06:04:18.484Z,15.03
2018-07-28T06:06:47.889Z,13.40
2018-07-28T06:09:17.352Z,14.30
2018-07-28T06:11:46.770Z,14.50
2018-07-28T06:14:16.303Z,13.33
2018-07-28T06:16:45.711Z,13.87
2018-07-28T06:19:15.081Z,13.80
2018-07-28T06:21:44.348Z,15.60
2018-07-28T06:24:13.753Z,14.67
2018-07-28T06:26:43.224Z,16.07
2018-07-28T06:29:12.567Z,15.93
2018-07-28T06:31:42.099Z,18.27
2018-07-28T06:34:11.584Z,15.50
2018-07-28T06:36:41.444Z,17.73
2018-07-28T06:39:13.435Z,21.53
2018-07-28T06:41:42.786Z,18.27
2018-07-28T06:44:12.131Z,16.40
2018-07-28T06:46:41.417Z,17.17
2018-07-28T06:49:11.332Z,17.20
2018-07-28T06:51:40.736Z,19.07
2018-07-28T06:54:10.032Z,15.93
2018-07-28T06:56:39.504Z,19.97
2018-07-28T06:59:08.858Z,18.17
2018-07-28T07:01:38.193Z,16.37
2018-07-28T07:04:07.524Z,13.40
2018-07-28T07:06:36.879Z,15.63
2018-07-28T07:09:09.192Z,16.10
2018-07-28T07:11:38.652Z,15.93
2018-07-28T07:14:07.980Z,13.33
2018-07-28T07:16:37.376Z,12.90
2018-07-28T07:19:06.806Z,14.40
2018-07-28T07:21:36.229Z,14.50
2018-07-28T07:24:05.549Z,13.47
2018-07-28T07:26:34.824Z,14.07
2018-07-28T07:29:04.196Z,12.73
2018-07-28T07:31:33.484Z,15.17
2018-07-28T07:34:02.754Z,13.53
2018-07-28T07:36:32.057Z,14.37
2018-07-28T07:39:01.435Z,12.73
2018-07-28T07:41:31.121Z,13.27
2018-07-28T07:44:00.375Z,12.27
2018-07-28T07:46:29.623Z,12.00
2018-07-28T07:48:58.974Z,14.23
2018-07-28T07:51:28.374Z,12.33
2018-07-28T07:53:57.757Z,12.60
2018-07-28T07:56:27.031Z,14.20
2018-07-28T07:58:56.444Z,12.17
2018-07-28T08:01:25.752Z,11.73
2018-07-28T08:03:55.145Z,11.80
2018-07-28T08:06:24.663Z,11.97
2018-07-28T08:08:54.581Z,11.37
2018-07-28T08:11:24.568Z,12.70
2018-07-28T08:13:54.504Z,11.53
2018-07-28T08:16:23.809Z,12.40
2018-07-28T08:18:53.188Z,11.70
2018-07-28T08:21:22.557Z,11.27
2018-07-28T08:23:51.821Z,11.00
2018-07-28T08:26:21.168Z,10.67
2018-07-28T08:28:50.592Z,10.50
2018-07-28T08:31:19.903Z,10.80
2018-07-28T08:33:49.305Z,10.43
2018-07-28T08:36:18.585Z,9.87
2018-07-28T08:38:47.880Z,11.27
2018-07-28T08:41:17.175Z,14.57
2018-07-28T08:43:46.644Z,16.53
2018-07-28T08:46:15.977Z,16.83
2018-07-28T08:48:45.954Z,14.33
2018-07-28T08:51:16.063Z,15.23
2018-07-28T08:53:45.440Z,20.80
2018-07-28T08:56:14.773Z,18.43
2018-07-28T08:58:44.183Z,23.73
2018-07-28T09:01:13.544Z,24.43
2018-07-28T09:03:49.281Z,16.87
2018-07-28T09:06:18.557Z,18.17
2018-07-28T09:08:47.933Z,16.83
2018-07-28T09:11:17.526Z,19.47
2018-07-28T09:13:46.423Z,15.90
2018-07-28T09:16:16.190Z,18.27
2018-07-28T09:18:46.348Z,14.30
2018-07-28T09:21:15.698Z,12.60
2018-07-28T09:23:45.000Z,12.57
2018-07-28T09:26:14.408Z,15.40
2018-07-28T09:28:43.798Z,12.83
2018-07-28T09:31:13.047Z,10.10
2018-07-28T09:33:42.347Z,11.43
2018-07-28T09:36:11.618Z,11.03
2018-07-28T09:38:40.953Z,11.13
2018-07-28T09:41:10.236Z,10.17
2018-07-28T09:43:39.539Z,13.17
2018-07-28T09:46:08.820Z,15.97
2018-07-28T09:48:38.160Z,15.00
2018-07-28T09:51:07.817Z,13.23
2018-07-28T09:53:37.121Z,12.87
2018-07-28T09:56:06.591Z,14.93
2018-07-28T09:58:35.900Z,11.30
2018-07-28T10:01:10.469Z,12.07
2018-07-28T10:03:39.833Z,15.07
2018-07-28T10:06:09.197Z,12.60
2018-07-28T10:08:38.582Z,13.63
2018-07-28T10:11:07.890Z,12.73
2018-07-28T10:13:37.362Z,13.07
2018-07-28T10:16:06.791Z,11.90
2018-07-28T10:18:36.183Z,12.00
2018-07-28T10:21:05.717Z,12.77
2018-07-28T10:23:35.613Z,17.43
2018-07-28T10:26:04.965Z,21.87
2018-07-28T10:28:34.304Z,21.50
2018-07-28T10:31:03.692Z,14.93
2018-07-28T10:33:33.039Z,12.53
2018-07-28T10:36:02.412Z,11.70
2018-07-28T10:38:31.707Z,11.63
2018-07-28T10:41:00.992Z,12.27
2018-07-28T10:43:30.280Z,12.50
2018-07-28T10:45:59.598Z,11.77
2018-07-28T10:48:28.875Z,11.63
2018-07-28T10:50:58.275Z,12.50
2018-07-28T10:53:27.607Z,11.97
2018-07-28T10:55:56.959Z,12.33
2018-07-28T10:58:26.245Z,11.60
2018-07-28T11:00:55.681Z,11.60
2018-07-28T11:03:24.960Z,11.70
2018-07-28T11:05:54.611Z,11.50
2018-07-28T11:08:23.893Z,23.20
2018-07-28T11:10:53.345Z,18.93
2018-07-28T11:13:22.630Z,10.83
2018-07-28T11:15:51.993Z,12.43
2018-07-28T11:18:21.352Z,12.03
2018-07-28T11:20:50.708Z,12.03
2018-07-28T11:23:57.326Z,12.30
2018-07-28T11:26:26.993Z,11.23
2018-07-28T11:28:56.375Z,13.40
2018-07-28T11:31:30.569Z,12.30
2018-07-28T11:34:10.689Z,12.90
2018-07-28T11:36:50.747Z,12.13
2018-07-28T11:39:30.990Z,12.37
2018-07-28T11:42:11.094Z,29.20
2018-07-28T11:44:51.173Z,20.37
2018-07-28T11:47:20.681Z,15.83
2018-07-28T11:49:50.149Z,15.97
2018-07-28T11:52:19.503Z,11.73
2018-07-28T11:54:48.816Z,11.27
2018-07-28T11:57:18.252Z,15.20
2018-07-28T11:59:47.830Z,14.90
2018-07-28T12:02:17.298Z,13.87
2018-07-28T12:04:46.652Z,15.80
2018-07-28T12:07:15.958Z,13.50
2018-07-28T12:09:45.440Z,13.03
2018-07-28T12:12:14.772Z,12.40
2018-07-28T12:14:44.095Z,11.43
2018-07-28T12:17:13.469Z,11.77
2018-07-28T12:19:42.834Z,16.17
2018-07-28T12:22:12.173Z,14.53
2018-07-28T12:24:41.538Z,11.87
2018-07-28T12:27:10.901Z,11.37
2018-07-28T12:29:40.431Z,11.53
2018-07-28T12:32:09.826Z,12.40
2018-07-28T12:34:39.217Z,11.27
2018-07-28T12:37:08.612Z,11.20
2018-07-28T12:39:37.461Z,11.70
2018-07-28T12:42:06.819Z,11.40
2018-07-28T12:44:36.186Z,11.00
2018-07-28T12:47:05.536Z,11.20
2018-07-28T12:49:34.966Z,10.93
2018-07-28T12:52:04.318Z,10.43
2018-07-28T12:54:33.790Z,11.23
2018-07-28T12:57:03.104Z,10.83
2018-07-28T12:59:32.504Z,10.50
2018-07-28T13:02:01.966Z,10.90
2018-07-28T13:04:31.297Z,11.00
2018-07-28T13:07:00.671Z,10.90
2018-07-28T13:09:30.177Z,12.40
2018-07-28T13:11:59.476Z,10.70
2018-07-28T13:14:28.788Z,12.10
2018-07-28T13:16:58.160Z,11.43
2018-07-28T13:19:27.484Z,10.73
2018-07-28T13:21:57.865Z,15.33
2018-07-28T13:24:27.270Z,17.07
2018-07-28T13:26:56.619Z,17.43
2018-07-28T13:29:25.950Z,18.10
2018-07-28T13:31:55.318Z,24.87
2018-07-28T13:34:24.621Z,24.20
2018-07-28T13:36:54.641Z,17.63
2018-07-28T13:39:24.038Z,15.30
2018-07-28T13:41:53.361Z,13.47
2018-07-28T13:44:22.696Z,17.17
2018-07-28T13:46:52.082Z,14.97
2018-07-28T13:49:21.650Z,10.93
2018-07-28T13:51:50.372Z,14.53
2018-07-28T13:54:19.174Z,13.57
2018-07-28T13:56:48.480Z,11.40
2018-07-28T13:59:17.918Z,11.33
2018-07-28T14:01:47.288Z,10.23
2018-07-28T14:04:17.374Z,9.63
2018-07-28T14:06:47.135Z,12.73
2018-07-28T14:09:16.598Z,11.73
2018-07-28T14:11:45.933Z,14.93
2018-07-28T14:14:15.409Z,12.87
2018-07-28T14:16:44.745Z,10.90
2018-07-28T14:19:14.163Z,11.87
2018-07-28T14:21:43.513Z,10.67
2018-07-28T14:24:12.414Z,10.83
2018-07-28T14:26:41.221Z,9.50
2018-07-28T14:29:10.620Z,9.60
2018-07-28T14:31:39.896Z,9.50
2018-07-28T14:34:09.672Z,11.80
2018-07-28T14:36:39.022Z,11.17
2018-07-28T14:39:09.318Z,9.20
2018-07-28T14:41:38.802Z,9.47
2018-07-28T14:44:08.174Z,9.23
2018-07-28T14:46:37.545Z,10.63
2018-07-28T14:49:06.933Z,8.77
2018-07-28T14:51:36.308Z,8.50
2018-07-28T14:54:05.705Z,9.70
2018-07-28T14:56:35.047Z,8.40
2018-07-28T14:59:04.499Z,9.53
2018-07-28T15:01:33.786Z,8.20
2018-07-28T15:04:03.149Z,8.40
2018-07-28T15:06:32.484Z,9.97
2018-07-28T15:09:02.074Z,10.47
2018-07-28T15:11:31.319Z,8.37
2018-07-28T15:14:00.856Z,9.23
2018-07-28T15:16:30.090Z,8.87
2018-07-28T15:18:59.652Z,9.63
2018-07-28T15:21:28.937Z,9.80
2018-07-28T15:23:58.246Z,9.13
2018-07-28T15:26:28.150Z,9.80
2018-07-28T15:28:57.560Z,8.83
2018-07-28T15:31:27.000Z,8.43
2018-07-28T15:33:56.377Z,10.27
2018-07-28T15:36:25.779Z,10.77
2018-07-28T15:38:55.125Z,11.73
2018-07-28T15:41:24.483Z,12.60
2018-07-28T15:43:54.136Z,9.97
2018-07-28T15:46:23.493Z,12.47
2018-07-28T15:48:52.947Z,10.70
2018-07-28T15:51:22.473Z,21.00
2018-07-28T15:53:51.829Z,11.70
2018-07-28T15:56:21.164Z,12.57
2018-07-28T15:58:50.627Z,9.13
2018-07-28T16:01:20.055Z,11.67
2018-07-28T16:03:49.421Z,13.13
2018-07-28T16:06:18.805Z,9.47
2018-07-28T16:08:48.244Z,11.17
2018-07-28T16:11:17.646Z,9.73
2018-07-28T16:13:46.440Z,9.03
2018-07-28T16:16:15.807Z,7.90
2018-07-28T16:18:45.220Z,8.33
2018-07-28T16:21:14.630Z,9.77
2018-07-28T16:23:44.201Z,9.90
2018-07-28T16:26:13.648Z,7.80
2018-07-28T16:28:44.463Z,8.33
2018-07-28T16:31:13.851Z,11.63
2018-07-28T16:33:43.242Z,16.33
2018-07-28T16:36:12.706Z,13.77
2018-07-28T16:38:42.193Z,7.87
2018-07-28T16:41:11.623Z,10.33
2018-07-28T16:43:40.979Z,11.77
2018-07-28T16:46:10.390Z,10.30
2018-07-28T16:48:40.150Z,8.27
2018-07-28T16:51:09.507Z,11.07
2018-07-28T16:53:38.892Z,7.90
2018-07-28T16:56:08.216Z,7.50
2018-07-28T16:58:37.611Z,11.50
2018-07-28T17:01:06.924Z,9.17
2018-07-28T17:03:35.675Z,7.60
2018-07-28T17:06:05.178Z,7.67
2018-07-28T17:08:34.545Z,7.80
2018-07-28T17:11:03.873Z,7.83
2018-07-28T17:13:33.246Z,8.73
2018-07-28T17:16:02.619Z,8.77
2018-07-28T17:18:31.981Z,7.57
2018-07-28T17:21:01.717Z,7.33
2018-07-28T17:23:31.341Z,7.20
2018-07-28T17:26:00.642Z,7.27
2018-07-28T17:28:29.413Z,7.20
2018-07-28T17:30:59.030Z,7.00
2018-07-28T17:33:28.604Z,7.13
2018-07-28T17:35:57.937Z,7.70
2018-07-28T17:38:27.334Z,7.83
2018-07-28T17:40:56.881Z,7.40
2018-07-28T17:43:26.189Z,7.30
2018-07-28T17:45:55.549Z,7.27
2018-07-28T17:48:24.867Z,7.60
2018-07-28T17:50:54.331Z,7.57
2018-07-28T17:53:24.031Z,7.20
2018-07-28T17:55:53.380Z,7.30
2018-07-28T17:58:22.157Z,7.20
2018-07-28T18:00:51.647Z,7.17
2018-07-28T18:03:20.973Z,9.63
2018-07-28T18:05:50.411Z,8.03
2018-07-28T18:08:19.706Z,7.43
2018-07-28T18:11:02.594Z,7.30
2018-07-28T18:13:32.026Z,8.00
2018-07-28T18:16:01.501Z,7.10
2018-07-28T18:18:30.883Z,7.67
2018-07-28T18:21:00.369Z,8.20
2018-07-28T18:23:30.464Z,7.23
2018-07-28T18:25:59.786Z,7.10
2018-07-28T18:28:29.178Z,6.80
2018-07-28T18:30:58.589Z,7.30
2018-07-28T18:33:28.043Z,7.20
2018-07-28T18:35:57.398Z,7.07
2018-07-28T18:38:26.778Z,6.73
2018-07-28T18:40:56.247Z,6.57
2018-07-28T18:43:26.419Z,6.90
2018-07-28T18:45:55.806Z,6.87
2018-07-28T18:48:25.120Z,6.80
2018-07-28T18:50:54.525Z,6.73
2018-07-28T18:53:23.870Z,6.50
2018-07-28T18:55:53.331Z,6.27
2018-07-28T18:58:22.644Z,6.13
2018-07-28T19:00:52.074Z,6.27
2018-07-28T19:03:21.420Z,7.73
2018-07-28T19:05:50.968Z,6.63
2018-07-28T19:08:20.629Z,6.20
2018-07-28T19:10:50.739Z,8.97
2018-07-28T19:13:25.840Z,6.60
2018-07-28T19:15:55.464Z,6.73
2018-07-28T19:18:30.015Z,6.70
2018-07-28T19:20:59.430Z,6.70
2018-07-28T19:23:33.725Z,7.07
2018-07-28T19:26:03.142Z,6.63
2018-07-28T19:28:37.581Z,7.10
2018-07-28T19:31:07.096Z,6.93
2018-07-28T19:33:36.369Z,6.63
2018-07-28T19:36:10.941Z,6.50
2018-07-28T19:38:40.477Z,6.70
2018-07-28T19:41:09.769Z,6.30
2018-07-28T19:43:39.068Z,6.27
2018-07-28T19:46:08.417Z,6.23
2018-07-28T19:48:37.780Z,6.27
2018-07-28T19:51:07.662Z,6.60
2018-07-28T19:53:37.016Z,6.87
2018-07-28T19:56:06.981Z,6.60
2018-07-28T19:58:36.334Z,6.53
2018-07-28T20:01:05.733Z,7.03
2018-07-28T20:03:35.159Z,6.23
2018-07-28T20:06:05.279Z,6.60
2018-07-28T20:08:34.718Z,6.70
2018-07-28T20:11:04.098Z,6.53
2018-07-28T20:13:33.421Z,6.77
2018-07-28T20:16:02.837Z,6.17
2018-07-28T20:18:32.448Z,7.07
2018-07-28T20:21:01.782Z,6.87
2018-07-28T20:23:31.220Z,7.30
2018-07-28T20:26:00.580Z,8.53
2018-07-28T20:28:30.360Z,6.87
2018-07-28T20:31:00.380Z,6.63
2018-07-28T20:33:29.883Z,6.53
2018-07-28T20:35:59.553Z,6.77
2018-07-28T20:38:29.108Z,7.77
2018-07-28T20:40:58.060Z,7.27
2018-07-28T20:43:27.562Z,7.17
2018-07-28T20:45:57.425Z,6.97
2018-07-28T20:48:27.004Z,7.47
2018-07-28T20:50:56.531Z,6.87
2018-07-28T20:53:25.758Z,7.60
2018-07-28T20:55:54.952Z,8.13
2018-07-28T20:58:24.181Z,7.10
2018-07-28T21:00:53.659Z,7.17
2018-07-28T21:03:22.912Z,6.67
2018-07-28T21:05:52.118Z,7.10
2018-07-28T21:08:21.662Z,7.57
2018-07-28T21:10:50.965Z,6.83
2018-07-28T21:13:20.225Z,7.60
2018-07-28T21:15:49.451Z,7.37
2018-07-28T21:18:18.678Z,8.47
2018-07-28T21:20:47.980Z,10.00
2018-07-28T21:23:18.107Z,10.33
2018-07-28T21:25:47.351Z,9.20
2018-07-28T21:28:16.601Z,9.23
2018-07-28T21:30:45.870Z,8.40
2018-07-28T21:33:15.258Z,7.10
2018-07-28T21:35:47.936Z,7.97
2018-07-28T21:38:17.132Z,7.37
2018-07-28T21:40:46.454Z,7.90
2018-07-28T21:43:15.673Z,7.67
2018-07-28T21:45:44.880Z,7.23
2018-07-28T21:48:14.081Z,7.97
2018-07-28T21:50:43.348Z,7.17
2018-07-28T21:53:12.544Z,7.13
2018-07-28T21:55:41.740Z,6.83
2018-07-28T21:58:10.943Z,7.97
2018-07-28T22:00:45.413Z,7.67
2018-07-28T22:03:14.631Z,7.07
2018-07-28T22:05:43.828Z,7.13
2018-07-28T22:08:13.107Z,6.70
2018-07-28T22:10:42.556Z,6.73
2018-07-28T22:13:11.756Z,7.10
2018-07-28T22:15:40.992Z,6.40
2018-07-28T22:18:10.240Z,6.53
2018-07-28T22:20:39.689Z,6.53
2018-07-28T22:23:08.878Z,5.93
2018-07-28T22:25:38.092Z,6.27
2018-07-28T22:28:07.323Z,6.87
2018-07-28T22:30:36.689Z,7.30
2018-07-28T22:33:05.959Z,6.70
2018-07-28T22:35:35.152Z,7.03
2018-07-28T22:38:04.488Z,6.43
2018-07-28T22:40:34.166Z,6.17
2018-07-28T22:43:03.671Z,6.33
2018-07-28T22:45:32.888Z,6.30
2018-07-28T22:48:02.101Z,6.17
2018-07-28T22:50:31.335Z,6.10
2018-07-28T22:53:00.593Z,6.23
2018-07-28T22:55:29.787Z,5.60
2018-07-28T22:57:58.991Z,6.83
2018-07-28T23:00:28.261Z,6.07
2018-07-28T23:02:57.484Z,6.33
2018-07-28T23:05:26.677Z,5.80
2018-07-28T23:07:55.923Z,6.60
2018-07-28T23:10:25.160Z,6.20
2018-07-28T23:12:54.391Z,5.97
2018-07-28T23:15:24.163Z,5.97
2018-07-28T23:17:53.388Z,6.00
2018-07-28T23:20:22.664Z,6.63
2018-07-28T23:22:52.194Z,6.73
2018-07-28T23:25:21.447Z,6.37
2018-07-28T23:27:50.726Z,5.80
2018-07-28T23:30:19.973Z,6.40
2018-07-28T23:32:49.193Z,6.30
2018-07-28T23:35:18.392Z,6.43
2018-07-28T23:37:47.593Z,5.93
2018-07-28T23:40:16.863Z,7.03
2018-07-28T23:42:46.219Z,6.20
2018-07-28T23:45:15.461Z,6.27
2018-07-28T23:47:45.164Z,6.27
2018-07-28T23:50:14.481Z,6.80
2018-07-28T23:52:43.696Z,8.50
2018-07-28T23:55:12.900Z,6.57
2018-07-28T23:57:42.105Z,8.70
